Strona główna
METAR-TAF:

METAR-TAF

Lotnisko :

Port lotniczy Caracas

Caracas, Wenezuela

Szerokość geograficzna: 10-36N, Długość geograficzna: 066-59W, wysokość: 43 m

Aktualna obserwacja pogody

Raport powstał 4 godziny i 27 minut temu, godzina 03:00 UTC
Wiatr 5 kt od wschód
Temperatura 26°C
Wilgotność 79%
Ciśnienie 1005 hPa
Widzialność 10 km lub więcej
Mało chmury na wysokości 1600 ft

METAR: SVMI 200300Z 09005KT 9999 FEW016 26/22 Q1005

czas: 03:27 (07:27 UTC)

Prognoza

Raport powstał 3 godziny i 27 minut temu, godzina 04:00 UTC
Prognoza ważna od 20 godzina 06 UTC do 21 godzina 06 UTC
Wiatr kt od północ
Widzialność 10 km lub więcej
Rozproszone chmury na wysokości 1600 ft
Przejściowo
od 20 godzina 06 UTC do 20 godzina 10 UTC
Mało chmury na wysokości 1600 ft

TAF: SVMI 200400Z 2006/2106 00000KT 9999 SCT016 TX32/19Z TN24/08Z TEMPO 2006/2010 FEW016

Obserwacja i prognoza pogody dla ponad 4000 lotnisk (raport METAR i TAF).

Dostępne stacje oznaczono żółtymi i czerwonymi punktami na mapie.

Najedź kursorem aby zobaczyć nazwę stacji.

Kliknij aby zobaczyć obserwacje i prognozy pogody.

Aby zmienić mapę: kliknij na zielony przycisk z czarnym krzyżykiem, aby powiększyć; na zielony przycisk z myślnikiem, aby pomniejszyć; na zielone strzałki, aby przejść do map sąsiednich.


METAR-TAF: